Terminal Aerodrome Forecast
Issued by NWS Wilmington, NC

Home | Current Version | Previous Version | Text Only | Print | Product List | Glossary On
Versions: 1 2 3 4 5 6 7 8 9 10 11 12 13 14 15 16
000
FTUS42 KILM 210500
TAFFLO
TAF
KFLO 210539Z 2106/2206 02010KT P6SM BKN050
     FM211300 01010KT P6SM SKC
     FM211600 35008KT P6SM SKC
     FM220200 30003KT P6SM FEW250=

USA.gov is the U.S. government's official web portal to all federal, state and local government web resources and services.